Time;durP1;ratioP1;P1;durP2;ratioP2;P2;SDS_P1;SDS_P2;PMS_P1;PMS_P2;Temp;Humidity;BMP_temperature;BMP_pressure;BME280_temperature;BME280_humidity;BME280_pressure;Samples;Min_cycle;Max_cycle;Signal;HPM_P1;HPM_P2
2024/03/02 00:01:15;;;;;;;11.40;6.90;;;;;;;6.94;100.00;100085.09;5074232;28;20441;-71
2024/03/02 00:03:43;;;;;;;11.40;5.60;;;;;;;6.95;100.00;100081.31;5073892;28;20453;-71
2024/03/02 00:06:11;;;;;;;16.70;6.70;;;;;;;6.95;100.00;100075.91;5074077;28;20453;-71
2024/03/02 00:08:40;;;;;;;14.90;6.80;;;;;;;7.04;100.00;100080.41;5074209;28;20446;-72
2024/03/02 00:11:06;;;;;;;18.53;5.77;;;;;;;7.09;100.00;100084.91;5073570;28;20873;-71
2024/03/02 00:13:34;;;;;;;13.77;5.47;;;;;;;7.11;100.00;100082.72;5073794;28;20927;-71
2024/03/02 00:16:01;;;;;;;16.80;6.20;;;;;;;7.16;100.00;100081.84;5074223;28;20528;-71
2024/03/02 00:18:31;;;;;;;14.63;4.90;;;;;;;7.15;100.00;100074.88;5074070;28;20467;-71
2024/03/02 00:20:58;;;;;;;12.23;6.77;;;;;;;7.21;100.00;100077.19;5073773;28;20500;-71
2024/03/02 00:23:28;;;;;;;12.03;6.50;;;;;;;7.23;100.00;100072.31;5073452;28;20576;-71
2024/03/02 00:25:56;;;;;;;16.07;6.90;;;;;;;7.27;100.00;100073.34;5073769;28;20446;-71
2024/03/02 00:28:25;;;;;;;10.93;6.73;;;;;;;7.26;100.00;100068.22;5073511;28;20532;-71
2024/03/02 00:30:59;;;;;;;10.40;5.50;;;;;;;7.25;100.00;100075.50;5073675;28;20527;-71
2024/03/02 00:33:32;;;;;;;11.40;5.40;;;;;;;7.22;100.00;100080.69;5073532;28;20511;-71
2024/03/02 00:36:00;;;;;;;12.30;5.60;;;;;;;7.21;100.00;100071.78;5074210;28;20991;-71
2024/03/02 00:38:28;;;;;;;14.60;7.30;;;;;;;7.26;100.00;100070.91;5073664;28;20448;-71
2024/03/02 00:40:57;;;;;;;13.30;6.30;;;;;;;7.20;100.00;100075.59;5073868;28;20491;-71
2024/03/02 00:43:43;;;;;;;18.97;6.37;;;;;;;7.21;100.00;100071.78;5073069;28;20862;-71
2024/03/02 00:46:14;;;;;;;9.33;5.10;;;;;;;7.21;100.00;100069.09;5072720;28;20452;-71
2024/03/02 00:48:49;;;;;;;9.70;4.93;;;;;;;7.22;100.00;100059.16;5073198;28;20432;-71
2024/03/02 00:51:16;;;;;;;6.77;4.27;;;;;;;7.16;100.00;100061.09;5072200;28;20425;-72
2024/03/02 00:53:42;;;;;;;14.83;5.87;;;;;;;7.14;100.00;100065.97;5073251;28;20532;-71
2024/03/02 00:56:12;;;;;;;14.23;6.30;;;;;;;7.15;100.00;100059.50;5086512;22;20559;-68
2024/03/02 00:58:39;;;;;;;10.13;6.10;;;;;;;7.19;100.00;100057.81;5073293;28;20438;-68
2024/03/02 01:01:06;;;;;;;13.00;6.30;;;;;;;7.25;100.00;100062.03;5073178;28;20508;-69
2024/03/02 01:03:33;;;;;;;14.40;5.77;;;;;;;7.31;100.00;100060.09;5073024;28;20524;-69
2024/03/02 01:06:00;;;;;;;15.53;6.47;;;;;;;7.36;100.00;100061.91;5073573;28;20444;-69
2024/03/02 01:08:27;;;;;;;13.33;5.30;;;;;;;7.41;100.00;100056.44;5072869;28;20428;-69
2024/03/02 01:10:54;;;;;;;9.37;5.90;;;;;;;7.41;100.00;100067.22;5073410;28;20441;-69
2024/03/02 01:13:23;;;;;;;13.23;5.60;;;;;;;7.43;100.00;100063.13;5072922;28;20975;-69
2024/03/02 01:15:49;;;;;;;17.43;7.20;;;;;;;7.49;100.00;100053.88;5073125;28;20524;-67
2024/03/02 01:18:16;;;;;;;12.50;6.57;;;;;;;7.45;100.00;100058.25;5073077;28;20531;-67
2024/03/02 01:20:42;;;;;;;12.87;5.70;;;;;;;7.48;100.00;100049.59;5073323;28;20444;-67
2024/03/02 01:23:08;;;;;;;20.23;6.73;;;;;;;7.43;100.00;100046.94;5072902;28;20851;-67
2024/03/02 01:25:35;;;;;;;13.17;6.17;;;;;;;7.39;100.00;100048.63;5072907;28;20211;-67
2024/03/02 01:28:02;;;;;;;12.00;5.10;;;;;;;7.42;100.00;100045.38;5073690;28;20441;-67
2024/03/02 01:30:30;;;;;;;9.87;5.57;;;;;;;7.54;100.00;100055.69;5072977;28;20434;-67
2024/03/02 01:32:58;;;;;;;13.30;6.40;;;;;;;7.56;100.00;100042.72;5072510;28;20981;-67
2024/03/02 01:35:25;;;;;;;10.53;5.07;;;;;;;7.57;100.00;100045.13;5072903;28;20451;-67
2024/03/02 01:37:51;;;;;;;14.43;6.73;;;;;;;7.53;100.00;100043.31;5072834;28;20448;-67
2024/03/02 01:40:18;;;;;;;11.63;5.80;;;;;;;7.48;100.00;100032.59;5073049;28;20951;-67
2024/03/02 01:42:45;;;;;;;15.10;5.90;;;;;;;7.47;100.00;100028.31;5072710;28;20488;-67
2024/03/02 01:45:12;;;;;;;9.80;4.50;;;;;;;7.48;100.00;100021.81;5073291;28;20461;-67
2024/03/02 01:47:40;;;;;;;11.47;7.20;;;;;;;7.48;100.00;100028.03;5073095;28;20849;-67
2024/03/02 01:50:08;;;;;;;14.03;6.80;;;;;;;7.49;100.00;100026.16;5072532;28;20502;-68
2024/03/02 01:52:35;;;;;;;10.70;4.87;;;;;;;7.47;100.00;100018.34;5073076;28;20490;-68
2024/03/02 01:55:03;;;;;;;13.87;6.37;;;;;;;7.45;100.00;100015.16;5072562;28;20473;-68
2024/03/02 01:57:30;;;;;;;13.20;7.40;;;;;;;7.47;100.00;100014.84;5072754;28;20498;-68
2024/03/02 01:59:57;;;;;;;11.13;6.10;;;;;;;7.46;100.00;100016.75;5072413;28;20451;-68
2024/03/02 02:02:24;;;;;;;12.47;5.20;;;;;;;7.49;100.00;100007.28;5074365;28;20485;-68
2024/03/02 02:04:52;;;;;;;8.50;4.70;;;;;;;7.49;100.00;100009.97;5076280;28;20437;-69
2024/03/02 02:07:19;;;;;;;13.20;6.37;;;;;;;7.51;100.00;100007.78;5076252;28;20524;-68
2024/03/02 02:09:45;;;;;;;12.03;7.20;;;;;;;7.50;100.00;100006.97;5075922;28;21000;-68
2024/03/02 02:12:12;;;;;;;10.63;5.60;;;;;;;7.52;100.00;100003.97;5075979;28;20548;-68
2024/03/02 02:14:40;;;;;;;14.03;6.53;;;;;;;7.57;100.00;99993.94;5076113;28;20442;-66
2024/03/02 02:17:06;;;;;;;12.90;7.50;;;;;;;7.62;100.00;99994.94;5076030;28;20437;-66
2024/03/02 02:19:33;;;;;;;10.10;5.53;;;;;;;7.64;100.00;99996.22;5075715;28;20475;-66
2024/03/02 02:22:01;;;;;;;13.83;5.70;;;;;;;7.66;100.00;100001.31;5075811;28;20541;-66
2024/03/02 02:24:28;;;;;;;12.37;6.20;;;;;;;7.63;100.00;99983.84;5075891;28;20536;-66
2024/03/02 02:26:54;;;;;;;14.20;5.87;;;;;;;7.67;100.00;99986.78;5075902;28;20470;-66
2024/03/02 02:29:21;;;;;;;12.27;5.40;;;;;;;7.72;100.00;99982.06;5075920;28;20789;-66
2024/03/02 02:31:47;;;;;;;12.50;6.73;;;;;;;7.77;100.00;99981.97;5075718;28;20502;-66
2024/03/02 02:34:15;;;;;;;16.67;6.70;;;;;;;7.77;100.00;99983.88;5076078;28;20536;-66
2024/03/02 02:36:43;;;;;;;10.87;6.93;;;;;;;7.73;100.00;99980.97;5075310;28;20524;-66
2024/03/02 02:39:14;;;;;;;13.50;7.07;;;;;;;7.69;100.00;99985.34;5075886;28;20849;-66
2024/03/02 02:41:41;;;;;;;14.37;7.47;;;;;;;7.67;100.00;99982.16;5075762;28;20819;-66
2024/03/02 02:44:07;;;;;;;10.97;5.33;;;;;;;7.64;100.00;99979.25;5075377;28;20491;-66
2024/03/02 02:46:34;;;;;;;12.50;6.83;;;;;;;7.62;100.00;99976.88;5075497;28;20536;-66
2024/03/02 02:49:01;;;;;;;19.60;8.07;;;;;;;7.64;100.00;99992.75;5075896;28;20855;-66
2024/03/02 02:51:27;;;;;;;19.03;7.67;;;;;;;7.62;100.00;99987.66;5075392;28;20444;-66
2024/03/02 02:53:54;;;;;;;14.60;6.10;;;;;;;7.65;100.00;99992.44;5074985;28;20529;-66
2024/03/02 02:56:22;;;;;;;15.40;6.83;;;;;;;7.62;100.00;99986.84;5074950;28;20484;-67
2024/03/02 02:58:49;;;;;;;16.30;6.37;;;;;;;7.62;100.00;99990.34;5075397;28;20441;-68
2024/03/02 03:01:16;;;;;;;10.37;6.13;;;;;;;7.62;100.00;99984.97;5074986;28;20480;-68
2024/03/02 03:03:43;;;;;;;18.27;7.20;;;;;;;7.66;100.00;99999.44;5074952;28;20859;-66
2024/03/02 03:06:10;;;;;;;15.37;6.30;;;;;;;7.71;100.00;99999.34;5075188;28;20971;-67
2024/03/02 03:08:37;;;;;;;14.83;6.30;;;;;;;7.73;100.00;99997.16;5075842;28;20465;-68
2024/03/02 03:11:04;;;;;;;15.27;7.60;;;;;;;7.76;100.00;99980.38;5075292;28;20442;-68
2024/03/02 03:13:32;;;;;;;14.83;7.50;;;;;;;7.79;100.00;99987.91;5074326;28;20461;-68
2024/03/02 03:15:59;;;;;;;20.10;7.70;;;;;;;7.84;100.00;99987.81;5075069;28;20473;-68
2024/03/02 03:18:25;;;;;;;16.43;6.93;;;;;;;7.89;100.00;99983.41;5075276;28;20477;-68
2024/03/02 03:20:52;;;;;;;16.40;7.63;;;;;;;7.89;100.00;99981.50;5074465;28;20520;-68
2024/03/02 03:23:19;;;;;;;18.33;8.20;;;;;;;7.91;100.00;99981.19;5074287;28;20560;-68
2024/03/02 03:25:45;;;;;;;13.40;6.93;;;;;;;7.92;100.00;99980.91;5074767;28;20445;-68
2024/03/02 03:28:12;;;;;;;11.77;7.23;;;;;;;8.00;100.00;99992.91;5075126;28;20437;-68
2024/03/02 03:30:40;;;;;;;16.97;8.47;;;;;;;8.03;100.00;99986.91;5074860;28;20865;-68
2024/03/02 03:33:07;;;;;;;16.27;7.67;;;;;;;8.02;100.00;99985.31;5074712;28;20464;-68
2024/03/02 03:35:34;;;;;;;14.60;7.47;;;;;;;8.06;100.00;99992.53;5074620;28;20865;-68
2024/03/02 03:38:01;;;;;;;14.40;7.70;;;;;;;8.09;100.00;99989.19;5074484;28;20445;-68
2024/03/02 03:40:28;;;;;;;22.37;8.07;;;;;;;8.12;100.00;99989.72;5074418;28;20437;-68
2024/03/02 03:42:56;;;;;;;11.03;6.07;;;;;;;8.10;100.00;99990.00;5074309;28;20485;-68
2024/03/02 03:45:25;;;;;;;14.97;8.63;;;;;;;8.13;100.00;99985.91;5074531;28;20441;-68
2024/03/02 03:47:53;;;;;;;12.77;6.93;;;;;;;8.12;100.00;99993.22;5074665;28;20449;-68
2024/03/02 03:50:19;;;;;;;15.17;7.17;;;;;;;8.07;100.00;99991.41;5073964;28;20885;-68
2024/03/02 03:52:46;;;;;;;15.00;6.73;;;;;;;8.07;100.00;99987.91;5074124;28;20458;-68
2024/03/02 03:55:13;;;;;;;18.37;8.23;;;;;;;8.09;100.00;99991.91;5073836;28;20493;-68
2024/03/02 03:57:40;;;;;;;17.37;8.63;;;;;;;8.09;100.00;99986.50;5074137;28;20445;-68
2024/03/02 04:00:10;;;;;;;15.23;8.37;;;;;;;8.09;100.00;99983.81;5074303;28;20520;-68
2024/03/02 04:02:36;;;;;;;17.23;8.93;;;;;;;8.10;100.00;99981.91;5074073;28;20462;-67
2024/03/02 04:05:08;;;;;;;15.40;8.47;;;;;;;8.12;100.00;99995.13;5074652;28;20433;-67
2024/03/02 04:07:39;;;;;;;14.27;7.10;;;;;;;8.16;100.00;99996.13;5073882;28;20786;-67
2024/03/02 04:10:08;;;;;;;17.43;8.13;;;;;;;8.16;100.00;99999.63;5073957;28;20447;-67
2024/03/02 04:12:35;;;;;;;14.13;7.53;;;;;;;8.14;100.00;100004.50;5073464;28;20983;-67
2024/03/02 04:15:03;;;;;;;21.13;7.17;;;;;;;8.11;100.00;100004.31;5073467;28;20921;-67
2024/03/02 04:17:32;;;;;;;15.07;7.67;;;;;;;8.15;100.00;100005.31;5073808;28;20445;-67
2024/03/02 04:19:59;;;;;;;17.33;8.10;;;;;;;8.19;100.00;100007.13;5073731;28;20524;-67
2024/03/02 04:22:27;;;;;;;19.70;8.37;;;;;;;8.23;100.00;100005.38;5073624;28;20469;-67
2024/03/02 04:24:54;;;;;;;18.07;7.87;;;;;;;8.25;100.00;100005.91;5073811;28;20529;-67
2024/03/02 04:27:20;;;;;;;14.60;8.70;;;;;;;8.28;100.00;100012.63;5073692;28;20445;-67
2024/03/02 04:29:47;;;;;;;15.00;7.43;;;;;;;8.32;100.00;100021.69;5073916;28;20442;-67
2024/03/02 04:32:14;;;;;;;13.93;8.73;;;;;;;8.34;100.00;100019.50;5073838;28;20462;-67
2024/03/02 04:34:40;;;;;;;19.43;8.00;;;;;;;8.36;100.00;100020.00;5073611;28;20461;-66
2024/03/02 04:37:07;;;;;;;14.23;8.30;;;;;;;8.38;100.00;100025.13;5073192;28;20437;-66
2024/03/02 04:39:35;;;;;;;15.80;7.87;;;;;;;8.39;100.00;100018.63;5073725;28;20467;-66
2024/03/02 04:42:02;;;;;;;13.20;7.30;;;;;;;8.44;100.00;100023.91;5073470;28;20503;-66
2024/03/02 04:44:29;;;;;;;12.33;6.27;;;;;;;8.45;100.00;100017.41;5073303;28;20574;-66
2024/03/02 04:46:55;;;;;;;20.67;8.30;;;;;;;8.49;100.00;100016.50;5073759;28;20523;-66
2024/03/02 04:49:22;;;;;;;13.87;7.90;;;;;;;8.51;100.00;100016.22;5073773;28;20442;-66
2024/03/02 04:51:49;;;;;;;17.03;8.60;;;;;;;8.51;100.00;100024.34;5073590;28;20533;-66
2024/03/02 04:54:15;;;;;;;18.23;8.30;;;;;;;8.55;100.00;100019.94;5072954;28;20447;-66
2024/03/02 04:56:49;;;;;;;12.53;6.37;;;;;;;8.57;100.00;100026.63;5073660;28;20441;-66
2024/03/02 04:59:16;;;;;;;17.30;8.70;;;;;;;8.58;100.00;100028.19;5073374;28;20452;-66
2024/03/02 05:01:42;;;;;;;29.90;9.23;;;;;;;8.61;100.00;100031.41;5073570;28;20490;-66
2024/03/02 05:04:11;;;;;;;15.20;7.93;;;;;;;8.61;100.00;100034.91;5073173;28;20517;-66
2024/03/02 05:06:38;;;;;;;12.43;7.60;;;;;;;8.64;100.00;100034.31;5072896;28;20536;-66
2024/03/02 05:09:04;;;;;;;12.27;7.50;;;;;;;8.70;100.00;100043.91;5073597;28;20599;-66
2024/03/02 05:11:59;;;;;;;15.10;7.10;;;;;;;8.76;100.00;100047.28;5073293;28;20560;-66
2024/03/02 05:14:26;;;;;;;15.50;8.47;;;;;;;8.80;100.00;100048.28;5073600;28;20422;-66
2024/03/02 05:16:52;;;;;;;14.27;6.90;;;;;;;8.82;100.00;100046.09;5073135;28;20441;-66
2024/03/02 05:19:19;;;;;;;15.40;8.13;;;;;;;8.86;100.00;100049.78;5073121;28;20437;-66
2024/03/02 05:21:45;;;;;;;14.70;7.70;;;;;;;8.92;100.00;100045.06;5073022;28;20524;-66
2024/03/02 05:24:12;;;;;;;18.80;9.30;;;;;;;8.97;100.00;100050.38;5073001;28;20473;-66
2024/03/02 05:26:39;;;;;;;18.40;10.27;;;;;;;9.02;100.00;100055.66;5073401;28;20516;-66
2024/03/02 05:29:05;;;;;;;15.60;7.37;;;;;;;9.05;100.00;100065.84;5073038;28;20441;-66
2024/03/02 05:31:33;;;;;;;14.07;9.20;;;;;;;9.04;100.00;100064.28;5072930;28;20499;-67
2024/03/02 05:34:00;;;;;;;19.47;7.87;;;;;;;9.06;100.00;100068.25;5072942;28;20986;-67
2024/03/02 05:36:26;;;;;;;17.43;8.77;;;;;;;9.06;100.00;100064.75;5073417;28;20665;-67
2024/03/02 05:38:53;;;;;;;20.90;8.40;;;;;;;9.01;100.00;100065.66;5076388;28;20440;-66
2024/03/02 05:41:20;;;;;;;15.37;9.20;;;;;;;9.05;100.00;100060.47;5076632;28;20531;-66
2024/03/02 05:43:47;;;;;;;21.33;8.80;;;;;;;9.06;100.00;100068.25;5076968;28;20546;-66
2024/03/02 05:46:13;;;;;;;14.03;8.00;;;;;;;9.07;100.00;100069.03;5076914;28;20447;-66
2024/03/02 05:48:41;;;;;;;15.13;7.60;;;;;;;9.07;100.00;100074.44;5076750;28;20518;-66
2024/03/02 05:51:08;;;;;;;19.17;9.30;;;;;;;9.04;100.00;100078.56;5076524;28;20445;-68
2024/03/02 05:53:37;;;;;;;26.03;9.53;;;;;;;9.00;100.00;100082.19;5076436;28;20541;-67
2024/03/02 05:56:05;;;;;;;15.23;8.00;;;;;;;8.93;100.00;100084.47;5075538;28;20831;-66
2024/03/02 05:58:42;;;;;;;19.67;8.87;;;;;;;8.92;100.00;100082.88;5075268;28;20848;-66
2024/03/02 06:01:09;;;;;;;17.60;8.80;;;;;;;8.94;100.00;100086.06;5075628;28;20449;-69
2024/03/02 06:03:36;;;;;;;17.57;9.07;;;;;;;8.88;100.00;100095.41;5075033;28;20563;-71
2024/03/02 06:06:05;;;;;;;12.13;7.93;;;;;;;8.88;100.00;100103.50;5074966;28;20503;-71
2024/03/02 06:08:31;;;;;;;16.33;8.80;;;;;;;8.84;100.00;100104.09;5074758;28;20445;-69
2024/03/02 06:10:58;;;;;;;20.67;10.20;;;;;;;8.80;100.00;100103.09;5074964;28;20528;-69
2024/03/02 06:13:25;;;;;;;27.17;10.50;;;;;;;8.78;100.00;100097.19;5074746;28;20515;-70
2024/03/02 06:15:52;;;;;;;26.13;9.77;;;;;;;8.77;100.00;100095.63;5074710;28;20955;-70
2024/03/02 06:18:18;;;;;;;19.20;9.70;;;;;;;8.80;100.00;100097.69;5075345;28;20855;-70
2024/03/02 06:20:45;;;;;;;17.90;6.77;;;;;;;8.81;100.00;100093.91;5074651;28;20937;-70
2024/03/02 06:23:13;;;;;;;15.40;7.83;;;;;;;8.85;100.00;100096.78;5074797;28;20469;-70
2024/03/02 06:25:39;;;;;;;21.03;9.23;;;;;;;8.84;100.00;100097.91;5074508;28;20944;-70
2024/03/02 06:28:07;;;;;;;21.77;9.93;;;;;;;8.86;100.00;100103.00;5075155;28;20532;-70
2024/03/02 06:30:33;;;;;;;24.50;10.80;;;;;;;8.90;100.00;100102.09;5074500;28;20481;-70
2024/03/02 06:33:00;;;;;;;14.73;8.07;;;;;;;8.94;100.00;100091.47;5075021;28;20651;-70
2024/03/02 06:35:27;;;;;;;15.87;7.37;;;;;;;8.97;100.00;100086.28;5074737;28;20441;-70
2024/03/02 06:37:53;;;;;;;18.97;8.97;;;;;;;9.01;100.00;100083.78;5074631;28;20936;-70
2024/03/02 06:40:21;;;;;;;20.17;7.87;;;;;;;9.04;100.00;100093.97;5074988;28;20447;-70
2024/03/02 06:42:48;;;;;;;17.83;9.13;;;;;;;9.05;100.00;100098.28;5074229;28;20476;-70
2024/03/02 06:45:15;;;;;;;15.40;7.73;;;;;;;9.05;100.00;100099.06;5074463;28;20535;-71
2024/03/02 06:47:41;;;;;;;18.70;8.53;;;;;;;9.04;100.00;100085.88;5074553;28;20520;-71
2024/03/02 06:50:09;;;;;;;17.93;8.50;;;;;;;9.09;100.00;100085.75;5074841;28;20532;-70
2024/03/02 06:52:36;;;;;;;20.70;9.60;;;;;;;9.14;100.00;100091.06;5074299;28;20526;-69
2024/03/02 06:55:04;;;;;;;15.35;8.52;;;;;;;9.19;100.00;100099.03;5048844;22;1134349;-67
2024/03/02 06:57:32;;;;;;;23.67;9.50;;;;;;;9.17;100.00;100101.25;5075468;28;20207;-68
2024/03/02 06:59:59;;;;;;;14.57;7.53;;;;;;;9.18;100.00;100102.84;5075393;28;20449;-67
2024/03/02 07:02:26;;;;;;;14.53;8.47;;;;;;;9.10;100.00;100109.75;5075265;28;20460;-69
2024/03/02 07:04:53;;;;;;;17.13;6.80;;;;;;;9.12;100.00;100111.34;5075458;28;20853;-69
2024/03/02 07:07:20;;;;;;;17.07;8.60;;;;;;;9.11;100.00;100115.97;5075205;28;20437;-69
2024/03/02 07:09:46;;;;;;;19.00;9.40;;;;;;;9.10;100.00;100111.66;5075623;28;20536;-67
2024/03/02 07:12:13;;;;;;;19.00;9.10;;;;;;;9.10;100.00;100103.56;5075460;28;20493;-68
2024/03/02 07:15:23;;;;;;;16.20;8.90;;;;;;;9.11;100.00;100113.25;5074767;28;20528;-68
2024/03/02 07:17:50;;;;;;;18.87;7.60;;;;;;;9.13;100.00;100111.06;5075065;28;20496;-68
2024/03/02 07:20:17;;;;;;;12.80;7.60;;;;;;;9.08;100.00;100119.28;5075047;28;20465;-66
2024/03/02 07:22:43;;;;;;;17.37;10.57;;;;;;;9.11;100.00;100115.97;5074740;28;20462;-65
2024/03/02 07:25:10;;;;;;;24.13;8.77;;;;;;;9.15;100.00;100114.25;5074891;28;20490;-67
2024/03/02 07:27:36;;;;;;;15.57;7.00;;;;;;;9.23;100.00;100118.97;5074900;28;20520;-67
2024/03/02 07:30:05;;;;;;;15.40;9.20;;;;;;;9.26;100.00;100115.66;5074875;28;20433;-66
2024/03/02 07:32:32;;;;;;;24.37;9.60;;;;;;;9.28;100.00;100118.84;5074835;28;20485;-66
2024/03/02 07:34:58;;;;;;;23.17;9.77;;;;;;;9.32;100.00;100125.25;5074706;28;20516;-67
2024/03/02 07:37:25;;;;;;;19.03;9.90;;;;;;;9.40;100.00;100139.16;5074743;28;20477;-66
2024/03/02 07:39:52;;;;;;;18.23;8.13;;;;;;;9.41;100.00;100143.44;5074903;28;20521;-66
2024/03/02 07:42:19;;;;;;;20.67;8.37;;;;;;;9.43;100.00;100138.53;5074136;28;20829;-68
2024/03/02 07:44:46;;;;;;;18.93;9.10;;;;;;;9.45;100.00;100145.25;5074735;28;20576;-68
2024/03/02 07:47:14;;;;;;;18.40;9.20;;;;;;;9.48;100.00;100157.34;5074729;28;20441;-68
2024/03/02 07:49:41;;;;;;;14.30;8.03;;;;;;;9.50;100.00;100152.44;5074074;28;20445;-68
2024/03/02 07:52:08;;;;;;;22.03;10.13;;;;;;;9.54;100.00;100158.84;5074567;28;20453;-68
2024/03/02 07:54:34;;;;;;;20.77;8.93;;;;;;;9.57;100.00;100163.66;5074158;28;20433;-68
2024/03/02 07:57:01;;;;;;;17.60;9.77;;;;;;;9.60;100.00;100157.59;5074630;28;20432;-68
2024/03/02 07:59:28;;;;;;;19.23;8.23;;;;;;;9.66;100.00;100166.44;5073875;28;20437;-68
2024/03/02 08:01:55;;;;;;;13.90;7.53;;;;;;;9.70;100.00;100172.81;5074139;28;20524;-68
2024/03/02 08:04:23;;;;;;;17.20;9.30;;;;;;;9.71;100.00;100169.81;5073932;28;20487;-68
2024/03/02 08:06:49;;;;;;;15.60;8.27;;;;;;;9.71;100.00;100166.31;5074808;28;20490;-68
2024/03/02 08:09:16;;;;;;;17.37;8.10;;;;;;;9.72;100.00;100174.09;5074790;28;20574;-68
2024/03/02 08:11:43;;;;;;;26.67;10.83;;;;;;;9.72;100.00;100168.69;5073964;28;20469;-68
2024/03/02 08:14:09;;;;;;;22.90;10.77;;;;;;;9.66;100.00;100171.84;5074007;28;20451;-68
2024/03/02 08:16:36;;;;;;;17.57;9.40;;;;;;;9.59;100.00;100175.75;5074248;28;20520;-68
2024/03/02 08:19:03;;;;;;;18.63;9.80;;;;;;;9.60;100.00;100176.53;5074391;28;20469;-68
2024/03/02 08:21:32;;;;;;;19.10;9.00;;;;;;;9.64;100.00;100177.53;5073932;28;20445;-68
2024/03/02 08:23:59;;;;;;;21.57;9.50;;;;;;;9.68;100.00;100185.84;5073622;28;21034;-68
2024/03/02 08:26:28;;;;;;;19.70;7.20;;;;;;;9.73;100.00;100186.50;5074146;28;20452;-68
2024/03/02 08:28:55;;;;;;;14.67;8.77;;;;;;;9.78;100.00;100186.44;5074189;28;20531;-68
2024/03/02 08:31:21;;;;;;;16.40;7.83;;;;;;;9.81;100.00;100188.50;5073784;28;20437;-68
2024/03/02 08:33:48;;;;;;;14.53;7.97;;;;;;;9.85;100.00;100192.19;5073714;28;20545;-68
2024/03/02 08:36:15;;;;;;;16.40;8.23;;;;;;;9.89;100.00;100194.28;5073373;28;20520;-68
2024/03/02 08:38:44;;;;;;;17.57;9.20;;;;;;;9.89;100.00;100191.59;5073657;28;20468;-68
2024/03/02 08:41:12;;;;;;;20.20;8.57;;;;;;;9.96;100.00;100194.66;5073722;28;20805;-68
2024/03/02 08:43:39;;;;;;;17.70;9.97;;;;;;;9.97;100.00;100193.56;5073636;28;20598;-68
2024/03/02 08:46:06;;;;;;;19.57;10.27;;;;;;;10.03;100.00;100208.56;5073575;28;20481;-68
2024/03/02 08:48:33;;;;;;;24.73;12.50;;;;;;;10.03;100.00;100205.88;5074039;28;20437;-68
2024/03/02 08:50:59;;;;;;;21.93;10.23;;;;;;;10.02;100.00;100207.78;5073592;28;20892;-68
2024/03/02 08:53:26;;;;;;;17.53;10.57;;;;;;;10.06;100.00;100207.97;5073393;28;20540;-68
2024/03/02 08:55:55;;;;;;;21.70;10.67;;;;;;;10.08;100.00;100216.56;5073345;28;20480;-68
2024/03/02 08:58:21;;;;;;;30.97;13.87;;;;;;;10.06;100.00;100211.47;5073489;28;20437;-68
2024/03/02 09:00:48;;;;;;;17.27;9.40;;;;;;;10.05;100.00;100212.59;5073387;28;20441;-67
2024/03/02 09:03:16;;;;;;;26.40;10.80;;;;;;;10.11;100.00;100216.75;5073322;28;20462;-68
2024/03/02 09:05:42;;;;;;;16.80;9.07;;;;;;;10.12;100.00;100222.97;5074032;28;20523;-68
2024/03/02 09:08:09;;;;;;;19.70;10.30;;;;;;;10.18;100.00;100224.47;5073404;28;20441;-66
2024/03/02 09:10:35;;;;;;;18.30;9.53;;;;;;;10.18;100.00;100224.47;5073356;28;20437;-68
2024/03/02 09:13:04;;;;;;;22.73;11.60;;;;;;;10.18;100.00;100224.47;5076948;28;20464;-67
2024/03/02 09:15:30;;;;;;;23.90;9.93;;;;;;;10.23;100.00;100228.97;5077520;28;20520;-68
2024/03/02 09:17:56;;;;;;;25.93;10.97;;;;;;;10.31;100.00;100220.94;5077975;28;20440;-68
2024/03/02 09:20:23;;;;;;;25.13;11.43;;;;;;;10.35;100.00;100221.88;5077297;28;20520;-68
2024/03/02 09:22:49;;;;;;;17.77;9.13;;;;;;;10.38;100.00;100222.38;5076971;28;20699;-67
2024/03/02 09:25:16;;;;;;;16.27;9.20;;;;;;;10.41;100.00;100230.69;5077285;28;20576;-68
2024/03/02 09:27:43;;;;;;;25.73;10.90;;;;;;;10.47;100.00;100234.06;5077574;28;20477;-68
2024/03/02 09:30:13;;;;;;;18.17;9.63;;;;;;;10.50;100.00;100233.47;5076861;28;20532;-68
2024/03/02 09:32:40;;;;;;;20.27;9.07;;;;;;;10.51;100.00;100232.34;5077558;28;20515;-68
2024/03/02 09:35:07;;;;;;;18.30;9.87;;;;;;;10.47;100.00;100234.88;5077337;28;20457;-68
2024/03/02 09:37:34;;;;;;;22.73;10.83;;;;;;;10.40;100.00;100239.13;5076938;28;20452;-67
2024/03/02 09:40:00;;;;;;;24.27;10.47;;;;;;;10.40;100.00;100241.81;5076777;28;20844;-68
2024/03/02 09:42:27;;;;;;;17.33;9.30;;;;;;;10.42;100.00;100243.13;5076694;28;20456;-67
2024/03/02 09:44:54;;;;;;;19.93;10.83;;;;;;;10.38;100.00;100249.47;5076800;28;20839;-67
2024/03/02 09:47:22;;;;;;;20.77;10.17;;;;;;;10.43;100.00;100249.34;5076840;28;21020;-67
2024/03/02 09:49:48;;;;;;;21.33;9.77;;;;;;;10.46;100.00;100240.59;5076760;28;20514;-67
2024/03/02 09:52:16;;;;;;;22.80;10.60;;;;;;;10.50;100.00;100238.88;5076546;28;20461;-68
2024/03/02 09:54:42;;;;;;;21.60;10.57;;;;;;;10.55;100.00;100236.03;5076697;28;20514;-67
2024/03/02 09:57:09;;;;;;;17.83;8.80;;;;;;;10.59;100.00;100227.00;5076659;28;20436;-67
2024/03/02 09:59:36;;;;;;;23.60;10.57;;;;;;;10.68;100.00;100232.47;5076613;28;20437;-67
2024/03/02 10:02:03;;;;;;;24.87;10.57;;;;;;;10.72;100.00;100228.03;5076490;28;20489;-67
2024/03/02 10:04:32;;;;;;;23.73;11.23;;;;;;;10.80;100.00;100232.69;5076602;28;20444;-68
2024/03/02 10:07:12;;;;;;;22.57;8.97;;;;;;;10.92;100.00;100229.38;5076674;28;20449;-68
2024/03/02 10:09:38;;;;;;;19.73;10.87;;;;;;;10.95;100.00;100227.97;5076542;28;20424;-68
2024/03/02 10:12:05;;;;;;;13.83;7.90;;;;;;;11.00;100.00;100233.25;5076689;28;20453;-67
2024/03/02 10:14:32;;;;;;;18.73;8.00;;;;;;;11.00;100.00;100231.34;5076185;28;20808;-67
2024/03/02 10:17:04;;;;;;;21.10;9.90;;;;;;;11.01;100.00;100232.13;5076188;28;20525;-68
2024/03/02 10:19:34;;;;;;;34.93;9.90;;;;;;;11.05;100.00;100228.47;5075901;28;20426;-67
2024/03/02 10:22:02;;;;;;;20.67;9.83;;;;;;;11.08;100.00;100227.88;5075933;28;20464;-67
2024/03/02 10:24:37;;;;;;;20.33;9.73;;;;;;;11.14;100.00;100231.22;5076133;28;20938;-67
2024/03/02 10:27:08;;;;;;;19.37;9.30;;;;;;;11.26;100.00;100233.34;5076024;28;20911;-67
2024/03/02 10:29:37;;;;;;;18.70;8.30;;;;;;;11.35;100.00;100231.47;5075746;28;20479;-68
2024/03/02 10:32:06;;;;;;;20.93;9.07;;;;;;;11.49;100.00;100231.34;5075888;28;20460;-67
2024/03/02 10:34:34;;;;;;;18.80;9.67;;;;;;;11.57;99.09;100230.56;5076250;28;20827;-67
2024/03/02 10:37:01;;;;;;;22.47;8.83;;;;;;;11.68;98.61;100226.41;5075972;28;20441;-67
2024/03/02 10:39:28;;;;;;;24.50;9.57;;;;;;;11.72;97.86;100232.81;5075920;28;20421;-67
2024/03/02 10:41:57;;;;;;;15.80;8.17;;;;;;;11.79;97.54;100238.56;5076001;28;20437;-68
2024/03/02 10:44:24;;;;;;;21.40;9.40;;;;;;;11.94;96.99;100241.97;5075756;28;20434;-67
2024/03/02 10:46:51;;;;;;;15.90;9.00;;;;;;;12.00;95.93;100236.06;5075401;28;20507;-67
2024/03/02 10:49:17;;;;;;;16.90;8.90;;;;;;;12.16;95.86;100233.66;5075412;28;20426;-67
2024/03/02 10:51:45;;;;;;;18.10;9.00;;;;;;;12.29;94.86;100243.56;5075768;28;20445;-67
2024/03/02 10:54:12;;;;;;;17.17;9.13;;;;;;;12.40;94.08;100243.25;5075487;28;20441;-67
2024/03/02 10:56:40;;;;;;;13.43;7.80;;;;;;;12.49;93.38;100244.03;5075059;28;20532;-67
2024/03/02 10:59:20;;;;;;;13.17;7.70;;;;;;;12.58;92.49;100242.09;5075295;28;20441;-67
2024/03/02 11:01:49;;;;;;;16.27;8.90;;;;;;;12.60;92.33;100248.00;5075372;28;20424;-67
2024/03/02 11:04:18;;;;;;;21.93;7.20;;;;;;;12.73;92.15;100249.72;5075420;28;20452;-67
2024/03/02 11:06:50;;;;;;;19.90;7.90;;;;;;;12.80;91.50;100246.53;5075170;28;20481;-67
2024/03/02 11:09:19;;;;;;;18.93;8.27;;;;;;;12.88;90.64;100251.94;5075740;28;20413;-67
2024/03/02 11:12:01;;;;;;;15.07;7.07;;;;;;;12.94;89.77;100246.31;5075026;28;20446;-67
2024/03/02 11:14:31;;;;;;;13.63;6.47;;;;;;;12.90;88.29;100239.94;5075039;28;20909;-67
2024/03/02 11:16:59;;;;;;;14.13;6.53;;;;;;;12.85;88.21;100236.28;5075433;28;20448;-67
2024/03/02 11:19:26;;;;;;;9.87;5.53;;;;;;;12.78;86.85;100238.69;5075145;28;20989;-67